createdAt,value
2022-12-11T00:00:59.942Z,10.02
2022-12-11T00:02:01.863Z,10.06
2022-12-11T00:03:04.342Z,10.01
2022-12-11T00:04:06.031Z,9.96
2022-12-11T00:05:08.417Z,9.99
2022-12-11T00:06:13.644Z,10.00
2022-12-11T00:07:15.313Z,9.97
2022-12-11T00:08:17.038Z,9.92
2022-12-11T00:09:19.735Z,9.91
2022-12-11T00:10:21.443Z,9.89
2022-12-11T00:11:23.807Z,9.84
2022-12-11T00:12:25.519Z,9.89
2022-12-11T00:13:27.469Z,9.97
2022-12-11T00:14:29.697Z,9.98
2022-12-11T00:15:31.431Z,9.93
2022-12-11T00:16:33.197Z,9.94
2022-12-11T00:17:34.944Z,9.96
2022-12-11T00:18:36.979Z,9.80
2022-12-11T00:19:38.686Z,9.74
2022-12-11T00:20:40.644Z,9.80
2022-12-11T00:21:42.474Z,9.76
2022-12-11T00:22:44.195Z,9.83
2022-12-11T00:23:45.873Z,9.88
2022-12-11T00:24:47.572Z,9.95
2022-12-11T00:25:49.748Z,9.99
2022-12-11T00:26:51.460Z,9.97
2022-12-11T00:27:53.123Z,9.93
2022-12-11T00:28:57.184Z,9.83
2022-12-11T00:29:58.835Z,9.84
2022-12-11T00:31:07.528Z,9.80
2022-12-11T00:32:09.261Z,9.84
2022-12-11T00:33:11.801Z,9.82
2022-12-11T00:34:13.567Z,9.77
2022-12-11T00:35:15.263Z,9.72
2022-12-11T00:36:23.108Z,9.68
2022-12-11T00:37:24.896Z,9.72
2022-12-11T00:38:26.675Z,9.76
2022-12-11T00:39:28.363Z,9.79
2022-12-11T00:40:30.032Z,9.83
2022-12-11T00:41:32.305Z,9.85
2022-12-11T00:42:33.977Z,9.83
2022-12-11T00:43:35.863Z,9.88
2022-12-11T00:44:37.706Z,9.97
2022-12-11T00:45:42.402Z,9.99
2022-12-11T00:46:44.127Z,10.00
2022-12-11T00:47:45.827Z,9.89
2022-12-11T00:48:49.954Z,9.88
2022-12-11T00:49:51.663Z,9.82
2022-12-11T00:50:53.422Z,9.81
2022-12-11T00:51:55.113Z,9.84
2022-12-11T00:52:56.773Z,9.86
2022-12-11T00:53:58.472Z,9.84
2022-12-11T00:55:00.157Z,9.84
2022-12-11T00:56:01.821Z,9.80
2022-12-11T00:57:03.598Z,9.77
2022-12-11T00:58:05.912Z,9.78
2022-12-11T00:59:07.666Z,9.71
2022-12-11T01:00:10.170Z,9.77
2022-12-11T01:01:21.318Z,9.79
2022-12-11T01:02:23.080Z,9.70
2022-12-11T01:03:24.774Z,9.73
2022-12-11T01:04:26.797Z,9.61
2022-12-11T01:05:28.804Z,9.78
2022-12-11T01:06:30.573Z,9.82
2022-12-11T01:07:32.240Z,9.84
2022-12-11T01:08:38.466Z,9.93
2022-12-11T01:09:59.111Z,9.95
2022-12-11T01:11:10.359Z,9.95
2022-12-11T01:12:11.894Z,9.94
2022-12-11T01:13:13.438Z,9.91
2022-12-11T01:14:15.004Z,9.87
2022-12-11T01:15:16.767Z,9.84
2022-12-11T01:16:18.496Z,9.73
2022-12-11T01:17:20.203Z,9.66
2022-12-11T01:18:22.040Z,9.64
2022-12-11T01:19:23.696Z,9.72
2022-12-11T01:20:26.495Z,9.71
2022-12-11T01:21:28.224Z,9.70
2022-12-11T01:22:30.490Z,9.64
2022-12-11T01:23:32.179Z,9.68
2022-12-11T01:24:33.839Z,9.70
2022-12-11T01:25:38.269Z,9.63
2022-12-11T01:26:40.004Z,9.60
2022-12-11T01:27:41.679Z,9.67
2022-12-11T01:28:44.171Z,9.70
2022-12-11T01:29:45.829Z,9.74
2022-12-11T01:30:47.618Z,9.74
2022-12-11T01:31:49.343Z,9.76
2022-12-11T01:32:51.039Z,9.79
2022-12-11T01:33:55.226Z,9.86
2022-12-11T01:34:56.886Z,9.86
2022-12-11T01:35:58.555Z,9.84
2022-12-11T01:37:00.220Z,9.90
2022-12-11T01:38:01.861Z,9.90
2022-12-11T01:39:04.182Z,9.84
2022-12-11T01:40:07.306Z,9.81
2022-12-11T01:41:09.523Z,9.90
2022-12-11T01:42:17.671Z,9.93
2022-12-11T01:43:19.448Z,9.81
2022-12-11T01:44:21.363Z,9.89
2022-12-11T01:45:30.730Z,9.96
2022-12-11T01:46:34.625Z,9.87
2022-12-11T01:47:36.383Z,9.80
2022-12-11T01:48:42.211Z,9.81
2022-12-11T01:49:44.204Z,9.70
2022-12-11T01:51:06.183Z,9.82
2022-12-11T01:52:16.368Z,9.76
2022-12-11T01:53:25.140Z,9.70
2022-12-11T01:54:28.438Z,9.72
2022-12-11T01:55:30.108Z,9.81
2022-12-11T01:56:34.169Z,9.93
2022-12-11T01:57:40.464Z,9.97
2022-12-11T01:58:47.787Z,10.01
2022-12-11T01:59:49.489Z,10.04
2022-12-11T02:00:52.715Z,10.12
2022-12-11T02:01:59.405Z,10.23
2022-12-11T02:03:01.157Z,10.34
2022-12-11T02:04:03.404Z,10.47
2022-12-11T02:05:06.282Z,10.48
2022-12-11T02:06:37.963Z,10.48
2022-12-11T02:07:52.780Z,10.52
2022-12-11T02:08:54.527Z,10.55
2022-12-11T02:09:56.418Z,10.49
2022-12-11T02:11:21.108Z,10.60
2022-12-11T02:12:41.591Z,10.60
2022-12-11T02:13:48.729Z,10.58
2022-12-11T02:14:52.993Z,10.64
2022-12-11T02:16:29.950Z,10.64
2022-12-11T02:17:56.024Z,10.63
2022-12-11T02:18:57.668Z,10.69
2022-12-11T02:20:16.992Z,10.57
2022-12-11T02:21:34.617Z,10.67
2022-12-11T02:23:04.361Z,10.73
2022-12-11T02:24:27.161Z,10.65
2022-12-11T02:25:37.102Z,10.62
2022-12-11T02:27:00.241Z,10.62
2022-12-11T02:28:11.050Z,10.65
2022-12-11T02:29:26.275Z,10.67
2022-12-11T02:30:28.746Z,10.63
2022-12-11T02:31:36.570Z,10.66
2022-12-11T02:32:59.128Z,10.69
2022-12-11T02:34:29.426Z,10.67
2022-12-11T02:35:38.103Z,10.64
2022-12-11T02:36:48.430Z,10.65
2022-12-11T02:37:56.397Z,10.58
2022-12-11T02:39:01.466Z,10.64
2022-12-11T02:40:04.938Z,10.65
2022-12-11T02:41:08.293Z,10.62
2022-12-11T02:42:13.056Z,10.63
2022-12-11T02:43:16.908Z,10.62
2022-12-11T02:44:27.183Z,10.65
2022-12-11T02:45:29.795Z,10.62
2022-12-11T02:46:34.899Z,10.64
2022-12-11T02:47:39.603Z,10.69
2022-12-11T02:48:42.140Z,10.71
2022-12-11T02:49:47.849Z,10.72
2022-12-11T02:50:52.781Z,10.59
2022-12-11T02:51:57.034Z,10.54
2022-12-11T02:53:03.051Z,10.60
2022-12-11T02:54:07.553Z,10.63
2022-12-11T02:55:13.032Z,10.56
2022-12-11T02:56:26.130Z,10.35
2022-12-11T02:57:40.503Z,10.47
2022-12-11T02:58:52.703Z,10.43
2022-12-11T02:59:57.151Z,10.42
2022-12-11T03:00:58.886Z,10.48
2022-12-11T03:02:01.251Z,10.50
2022-12-11T03:03:03.219Z,10.48
2022-12-11T03:04:05.050Z,10.50
2022-12-11T03:05:07.528Z,10.55
2022-12-11T03:06:14.920Z,10.61
2022-12-11T03:07:26.539Z,10.60
2022-12-11T03:08:28.250Z,10.50
2022-12-11T03:09:29.977Z,10.54
2022-12-11T03:10:31.688Z,10.54
2022-12-11T03:11:33.382Z,10.47
2022-12-11T03:12:39.108Z,10.70
2022-12-11T03:13:42.736Z,10.72
2022-12-11T03:14:45.024Z,10.80
2022-12-11T03:16:03.935Z,10.87
2022-12-11T03:17:15.359Z,10.92
2022-12-11T03:18:35.285Z,11.02
2022-12-11T03:19:45.980Z,11.09
2022-12-11T03:21:04.675Z,11.05
2022-12-11T03:22:16.267Z,11.02
2022-12-11T03:23:30.795Z,11.13
2022-12-11T03:24:46.351Z,11.17
2022-12-11T03:25:55.802Z,11.20
2022-12-11T03:27:11.191Z,11.20
2022-12-11T03:28:19.807Z,11.21
2022-12-11T03:29:25.734Z,11.18
2022-12-11T03:30:29.052Z,11.24
2022-12-11T03:31:42.414Z,11.29
2022-12-11T03:32:50.350Z,11.32
2022-12-11T03:33:56.303Z,11.35
2022-12-11T03:35:05.414Z,11.43
2022-12-11T03:36:31.252Z,11.45
2022-12-11T03:37:36.615Z,11.44
2022-12-11T03:38:49.259Z,11.45
2022-12-11T03:39:54.687Z,11.49
2022-12-11T03:41:00.930Z,11.51
2022-12-11T03:42:07.096Z,11.54
2022-12-11T03:43:11.090Z,11.51
2022-12-11T03:44:13.715Z,11.42
2022-12-11T03:45:17.725Z,11.45
2022-12-11T03:46:22.545Z,11.52
2022-12-11T03:47:27.227Z,11.56
2022-12-11T03:48:34.232Z,11.57
2022-12-11T03:49:40.285Z,11.60
2022-12-11T03:50:43.681Z,11.62
2022-12-11T03:51:48.332Z,11.66
2022-12-11T03:52:51.110Z,11.69
2022-12-11T03:53:53.404Z,11.68
2022-12-11T03:55:00.383Z,11.71
2022-12-11T03:56:04.524Z,11.74
2022-12-11T03:57:08.407Z,11.72
2022-12-11T03:58:10.102Z,11.74
2022-12-11T03:59:12.329Z,11.76
2022-12-11T04:00:16.902Z,11.79
2022-12-11T04:01:18.592Z,11.78
2022-12-11T04:02:20.480Z,11.72
2022-12-11T04:03:22.211Z,11.72
2022-12-11T04:04:23.957Z,11.74
2022-12-11T04:05:25.674Z,11.81
2022-12-11T04:06:27.564Z,11.84
2022-12-11T04:07:29.230Z,11.85
2022-12-11T04:08:30.960Z,11.82
2022-12-11T04:09:33.045Z,11.83
2022-12-11T04:10:34.749Z,11.87
2022-12-11T04:11:36.506Z,11.80
2022-12-11T04:12:38.164Z,11.84
2022-12-11T04:13:41.195Z,11.81
2022-12-11T04:15:01.538Z,11.90
2022-12-11T04:16:03.274Z,11.81
2022-12-11T04:17:05.552Z,11.75
2022-12-11T04:18:27.422Z,11.77
2022-12-11T04:19:47.839Z,11.70
2022-12-11T04:21:08.252Z,11.52
2022-12-11T04:22:32.793Z,11.60
2022-12-11T04:23:52.966Z,11.67
2022-12-11T04:24:54.636Z,11.76
2022-12-11T04:26:14.648Z,11.82
2022-12-11T04:27:36.049Z,11.77
2022-12-11T04:28:37.933Z,11.74
2022-12-11T04:29:39.581Z,11.69
2022-12-11T04:30:41.427Z,11.74
2022-12-11T04:31:43.272Z,11.77
2022-12-11T04:32:45.157Z,11.72
2022-12-11T04:33:47.541Z,11.76
2022-12-11T04:34:49.225Z,11.68
2022-12-11T04:35:50.889Z,11.62
2022-12-11T04:36:52.552Z,11.70
2022-12-11T04:37:54.318Z,11.73
2022-12-11T04:38:56.072Z,11.86
2022-12-11T04:39:57.745Z,12.10
2022-12-11T04:41:08.298Z,12.20
2022-12-11T04:42:09.959Z,12.23
2022-12-11T04:43:11.644Z,12.23
2022-12-11T04:44:13.343Z,12.21
2022-12-11T04:45:15.215Z,12.12
2022-12-11T04:46:21.216Z,12.19
2022-12-11T04:47:23.213Z,12.19
2022-12-11T04:48:24.921Z,12.14
2022-12-11T04:49:26.578Z,12.13
2022-12-11T04:50:28.317Z,12.13
2022-12-11T04:51:30.137Z,12.07
2022-12-11T04:52:31.844Z,12.02
2022-12-11T04:53:34.173Z,11.75
2022-12-11T04:54:36.110Z,11.60
2022-12-11T04:55:39.381Z,11.56
2022-12-11T04:56:41.031Z,11.62
2022-12-11T04:57:42.799Z,11.71
2022-12-11T04:58:45.550Z,11.65
2022-12-11T04:59:47.924Z,11.72
2022-12-11T05:00:49.865Z,11.76
2022-12-11T05:01:52.505Z,11.74
2022-12-11T05:02:54.265Z,11.63
2022-12-11T05:03:56.280Z,11.60
2022-12-11T05:04:57.976Z,11.63
2022-12-11T05:05:59.631Z,11.63
2022-12-11T05:07:01.756Z,11.61
2022-12-11T05:08:03.869Z,11.64
2022-12-11T05:09:05.543Z,11.63
2022-12-11T05:10:07.920Z,11.55
2022-12-11T05:11:12.231Z,11.49
2022-12-11T05:12:13.904Z,11.46
2022-12-11T05:13:15.597Z,11.44
2022-12-11T05:14:17.402Z,11.54
2022-12-11T05:15:19.052Z,11.58
2022-12-11T05:16:20.795Z,11.55
2022-12-11T05:17:22.929Z,11.58
2022-12-11T05:18:25.265Z,11.62
2022-12-11T05:19:27.708Z,11.63
2022-12-11T05:20:29.401Z,11.69
2022-12-11T05:21:35.020Z,11.73
2022-12-11T05:22:38.022Z,11.71
2022-12-11T05:23:40.048Z,11.68
2022-12-11T05:24:41.919Z,11.62
2022-12-11T05:25:43.619Z,11.72
2022-12-11T05:26:45.385Z,11.79
2022-12-11T05:27:47.040Z,11.84
2022-12-11T05:28:54.273Z,11.83
2022-12-11T05:29:59.420Z,11.76
2022-12-11T05:31:05.021Z,11.79
2022-12-11T05:32:07.965Z,11.84
2022-12-11T05:33:09.628Z,11.80
2022-12-11T05:34:11.428Z,11.77
2022-12-11T05:35:13.344Z,11.77
2022-12-11T05:36:22.320Z,11.78
2022-12-11T05:37:23.983Z,11.84
2022-12-11T05:38:25.912Z,11.80
2022-12-11T05:39:27.587Z,11.88
2022-12-11T05:40:29.331Z,11.86
2022-12-11T05:41:32.892Z,11.90
2022-12-11T05:42:34.772Z,11.95
2022-12-11T05:43:37.238Z,12.07
2022-12-11T05:44:38.917Z,12.21
2022-12-11T05:45:40.588Z,12.29
2022-12-11T05:46:42.339Z,12.36
2022-12-11T05:47:44.093Z,12.39
2022-12-11T05:48:48.283Z,12.46
2022-12-11T05:49:49.954Z,12.52
2022-12-11T05:50:59.446Z,12.55
2022-12-11T05:52:01.135Z,12.58
2022-12-11T05:53:02.918Z,12.55
2022-12-11T05:54:05.370Z,12.58
2022-12-11T05:55:07.477Z,12.57
2022-12-11T05:56:13.465Z,12.66
2022-12-11T05:57:15.144Z,12.66
2022-12-11T05:58:16.818Z,12.60
2022-12-11T05:59:19.867Z,12.68
2022-12-11T06:00:21.596Z,12.69
2022-12-11T06:01:30.367Z,12.69
2022-12-11T06:02:34.614Z,12.67
2022-12-11T06:03:36.352Z,12.77
2022-12-11T06:04:38.056Z,12.80
2022-12-11T06:05:41.801Z,12.83
2022-12-11T06:06:43.998Z,12.72
2022-12-11T06:07:45.732Z,12.87
2022-12-11T06:08:51.346Z,12.89
2022-12-11T06:09:53.063Z,12.91
2022-12-11T06:10:54.758Z,12.93
2022-12-11T06:11:56.416Z,12.95
2022-12-11T06:12:58.065Z,12.93
2022-12-11T06:14:01.575Z,13.02
2022-12-11T06:15:05.215Z,13.00
2022-12-11T06:16:08.769Z,13.01
2022-12-11T06:17:10.580Z,13.01
2022-12-11T06:18:12.353Z,12.96
2022-12-11T06:19:16.929Z,12.92
2022-12-11T06:20:18.743Z,12.93
2022-12-11T06:21:26.745Z,12.89
2022-12-11T06:22:28.433Z,12.77
2022-12-11T06:23:30.085Z,12.74
2022-12-11T06:24:31.829Z,12.66
2022-12-11T06:25:33.680Z,12.65
2022-12-11T06:26:35.333Z,12.57
2022-12-11T06:27:37.023Z,12.45
2022-12-11T06:28:39.059Z,12.38
2022-12-11T06:29:41.029Z,12.31
2022-12-11T06:30:42.685Z,12.22
2022-12-11T06:31:44.395Z,12.20
2022-12-11T06:32:46.067Z,12.19
2022-12-11T06:33:48.294Z,12.16
2022-12-11T06:34:50.022Z,12.25
2022-12-11T06:35:52.232Z,12.31
2022-12-11T06:36:53.916Z,12.34
2022-12-11T06:37:56.118Z,12.36
2022-12-11T06:38:57.839Z,12.41
2022-12-11T06:39:59.613Z,12.38
2022-12-11T06:41:04.945Z,12.41
2022-12-11T06:42:06.594Z,12.46
2022-12-11T06:43:08.305Z,12.66
2022-12-11T06:44:10.022Z,12.75
2022-12-11T06:45:12.046Z,12.78
2022-12-11T06:46:16.993Z,12.84
2022-12-11T06:47:18.694Z,12.94
2022-12-11T06:48:20.494Z,13.05
2022-12-11T06:49:22.284Z,13.12
2022-12-11T06:50:24.019Z,13.17
2022-12-11T06:51:25.699Z,13.16
2022-12-11T06:52:30.347Z,13.17
2022-12-11T06:53:32.044Z,13.19
2022-12-11T06:54:33.699Z,13.24
2022-12-11T06:55:36.462Z,13.33
2022-12-11T06:56:38.205Z,13.39
2022-12-11T06:57:40.012Z,13.37
2022-12-11T06:58:43.337Z,13.50
2022-12-11T06:59:45.555Z,13.54
2022-12-11T07:00:47.340Z,13.56
2022-12-11T07:01:49.164Z,13.58
2022-12-11T07:02:51.452Z,13.65
2022-12-11T07:03:55.041Z,13.67
2022-12-11T07:04:56.699Z,13.77
2022-12-11T07:06:02.431Z,13.79
2022-12-11T07:07:04.163Z,13.77
2022-12-11T07:08:07.492Z,13.75
2022-12-11T07:09:10.170Z,13.77
2022-12-11T07:10:12.115Z,13.84
2022-12-11T07:11:15.944Z,13.97
2022-12-11T07:12:17.827Z,13.99
2022-12-11T07:13:19.484Z,14.11
2022-12-11T07:14:21.283Z,14.25
2022-12-11T07:15:22.944Z,14.20
2022-12-11T07:16:25.054Z,14.29
2022-12-11T07:17:26.718Z,14.42
2022-12-11T07:18:29.059Z,14.47
2022-12-11T07:19:31.199Z,14.57
2022-12-11T07:20:32.852Z,14.67
2022-12-11T07:21:34.513Z,14.72
2022-12-11T07:22:40.347Z,14.73
2022-12-11T07:23:44.904Z,14.82
2022-12-11T07:24:46.598Z,14.88
2022-12-11T07:25:48.302Z,14.92
2022-12-11T07:26:50.040Z,14.81
2022-12-11T07:27:51.724Z,14.80
2022-12-11T07:28:53.486Z,14.84
2022-12-11T07:29:55.902Z,14.83
2022-12-11T07:30:57.600Z,14.87
2022-12-11T07:31:59.418Z,14.89
2022-12-11T07:33:01.437Z,14.91
2022-12-11T07:34:05.439Z,14.98
2022-12-11T07:35:07.443Z,14.99
2022-12-11T07:36:11.314Z,15.00
2022-12-11T07:37:12.972Z,15.05
2022-12-11T07:38:14.645Z,15.06
2022-12-11T07:39:16.362Z,15.11
2022-12-11T07:40:18.130Z,15.19
2022-12-11T07:41:19.865Z,15.24
2022-12-11T07:42:21.561Z,15.24
2022-12-11T07:43:23.231Z,15.32
2022-12-11T07:44:24.889Z,15.34
2022-12-11T07:45:26.713Z,15.35
2022-12-11T07:46:31.128Z,15.25
2022-12-11T07:47:33.724Z,15.29
2022-12-11T07:48:36.415Z,15.34
2022-12-11T07:49:38.426Z,15.30
2022-12-11T07:50:40.136Z,15.33
2022-12-11T07:51:43.623Z,15.29
2022-12-11T07:52:45.529Z,15.21
2022-12-11T07:53:49.515Z,15.12
2022-12-11T07:54:51.209Z,14.98
2022-12-11T07:55:52.915Z,14.83
2022-12-11T07:56:54.603Z,14.95
2022-12-11T07:57:56.267Z,14.92
2022-12-11T07:59:00.611Z,14.97
2022-12-11T08:00:02.336Z,15.06
2022-12-11T08:01:04.050Z,15.12
2022-12-11T08:02:05.870Z,15.20
2022-12-11T08:03:07.560Z,15.23
2022-12-11T08:04:12.084Z,15.31
2022-12-11T08:05:13.925Z,15.39
2022-12-11T08:06:16.576Z,15.47
2022-12-11T08:07:18.287Z,15.54
2022-12-11T08:08:20.343Z,15.58
2022-12-11T08:09:22.815Z,15.62
2022-12-11T08:10:24.515Z,15.52
2022-12-11T08:11:26.433Z,15.52
2022-12-11T08:12:28.110Z,15.56
2022-12-11T08:13:29.796Z,15.65
2022-12-11T08:14:31.489Z,15.72
2022-12-11T08:15:33.965Z,15.79
2022-12-11T08:16:35.762Z,15.84
2022-12-11T08:17:40.204Z,15.79
2022-12-11T08:18:42.912Z,15.75
2022-12-11T08:19:44.573Z,15.73
2022-12-11T08:20:46.310Z,15.79
2022-12-11T08:21:48.072Z,15.81
2022-12-11T08:22:52.344Z,15.86
2022-12-11T08:23:56.753Z,15.91
2022-12-11T08:24:58.697Z,15.95
2022-12-11T08:26:04.210Z,15.99
2022-12-11T08:27:06.023Z,15.97
2022-12-11T08:28:07.748Z,16.09
2022-12-11T08:29:10.190Z,16.04
2022-12-11T08:30:12.158Z,16.08
2022-12-11T08:31:15.987Z,16.10
2022-12-11T08:32:18.874Z,16.14
2022-12-11T08:33:20.567Z,16.25
2022-12-11T08:34:22.394Z,16.28
2022-12-11T08:35:24.187Z,16.33
2022-12-11T08:36:26.318Z,16.37
2022-12-11T08:37:28.139Z,16.36
2022-12-11T08:38:30.363Z,16.39
2022-12-11T08:39:32.098Z,16.45
2022-12-11T08:40:33.767Z,16.50
2022-12-11T08:41:35.434Z,16.52
2022-12-11T08:42:37.245Z,16.57
2022-12-11T08:43:39.373Z,16.68
2022-12-11T08:44:41.417Z,16.73
2022-12-11T08:45:43.128Z,16.76
2022-12-11T08:46:44.860Z,16.83
2022-12-11T08:47:46.556Z,16.82
2022-12-11T08:48:48.430Z,16.92
2022-12-11T08:49:50.093Z,16.95
2022-12-11T08:50:51.813Z,16.94
2022-12-11T08:51:53.475Z,16.94
2022-12-11T08:52:55.193Z,17.02
2022-12-11T08:53:58.515Z,17.04
2022-12-11T08:55:00.209Z,17.05
2022-12-11T08:56:10.466Z,17.09
2022-12-11T08:57:12.164Z,17.10
2022-12-11T08:58:13.852Z,17.19
2022-12-11T08:59:16.840Z,17.19
2022-12-11T09:00:18.862Z,17.23
2022-12-11T09:01:26.350Z,17.27
2022-12-11T09:02:28.114Z,17.30
2022-12-11T09:03:29.809Z,17.35
2022-12-11T09:04:31.490Z,17.40
2022-12-11T09:05:33.143Z,17.53
2022-12-11T09:06:34.950Z,17.58
2022-12-11T09:07:38.089Z,17.65
2022-12-11T09:08:40.426Z,17.69
2022-12-11T09:09:42.130Z,17.69
2022-12-11T09:10:43.964Z,17.73
2022-12-11T09:11:46.593Z,17.77
2022-12-11T09:12:48.267Z,17.77
2022-12-11T09:13:50.269Z,17.77
2022-12-11T09:14:52.044Z,17.82
2022-12-11T09:15:53.791Z,17.83
2022-12-11T09:16:55.505Z,17.81
2022-12-11T09:17:57.204Z,17.87
2022-12-11T09:19:00.006Z,17.94
2022-12-11T09:20:02.327Z,17.92
2022-12-11T09:21:13.547Z,17.93
2022-12-11T09:22:15.313Z,17.73
2022-12-11T09:23:16.984Z,17.83
2022-12-11T09:24:18.710Z,17.70
2022-12-11T09:25:20.429Z,17.68
2022-12-11T09:26:22.979Z,17.76
2022-12-11T09:27:24.733Z,17.84
2022-12-11T09:28:26.620Z,17.87
2022-12-11T09:29:28.301Z,17.94
2022-12-11T09:30:30.036Z,18.01
2022-12-11T09:31:34.971Z,18.08
2022-12-11T09:32:36.714Z,18.09
2022-12-11T09:33:39.417Z,18.08
2022-12-11T09:34:41.078Z,18.15
2022-12-11T09:35:43.340Z,18.12
2022-12-11T09:36:45.068Z,17.99
2022-12-11T09:37:46.745Z,17.95
2022-12-11T09:38:48.904Z,17.98
2022-12-11T09:39:50.606Z,18.01
2022-12-11T09:40:52.287Z,18.04
2022-12-11T09:42:00.048Z,18.07
2022-12-11T09:43:12.693Z,18.05
2022-12-11T09:44:32.456Z,18.13
2022-12-11T09:45:34.209Z,18.11
2022-12-11T09:46:36.844Z,18.11
2022-12-11T09:47:44.424Z,18.12
2022-12-11T09:48:48.280Z,18.15
2022-12-11T09:49:57.092Z,18.14
2022-12-11T09:51:01.128Z,18.09
2022-12-11T09:52:15.140Z,18.12
2022-12-11T09:53:22.963Z,18.12
2022-12-11T09:54:24.687Z,18.09
2022-12-11T09:55:36.338Z,18.11
2022-12-11T09:57:14.781Z,18.07
2022-12-11T09:58:39.267Z,17.96
2022-12-11T10:00:05.703Z,17.98
2022-12-11T10:01:27.129Z,17.92
2022-12-11T10:02:43.836Z,17.94
2022-12-11T10:04:01.886Z,17.94
2022-12-11T10:05:20.250Z,17.91
2022-12-11T10:06:38.402Z,17.88
2022-12-11T10:07:52.039Z,17.93
2022-12-11T10:09:03.551Z,17.99
2022-12-11T10:10:22.679Z,18.01
2022-12-11T10:11:56.766Z,18.03
2022-12-11T10:13:02.944Z,18.15
2022-12-11T10:14:13.647Z,18.24
2022-12-11T10:15:39.863Z,18.32
2022-12-11T10:16:45.380Z,18.29
2022-12-11T10:17:47.864Z,18.18
2022-12-11T10:18:50.183Z,18.22
2022-12-11T10:19:52.478Z,18.26
2022-12-11T10:20:55.017Z,18.35
2022-12-11T10:21:59.096Z,18.48
2022-12-11T10:23:02.207Z,18.53
2022-12-11T10:24:06.135Z,18.57
2022-12-11T10:25:17.980Z,18.65
2022-12-11T10:26:22.656Z,18.70
2022-12-11T10:27:31.562Z,18.74
2022-12-11T10:28:33.387Z,18.76
2022-12-11T10:29:35.122Z,18.75
2022-12-11T10:30:38.381Z,18.83
2022-12-11T10:31:59.195Z,18.80
2022-12-11T10:33:27.016Z,18.82
2022-12-11T10:34:40.150Z,18.80
2022-12-11T10:35:44.795Z,18.86
2022-12-11T10:36:47.217Z,18.89
2022-12-11T10:37:48.909Z,18.92
2022-12-11T10:38:50.868Z,18.96
2022-12-11T10:39:52.649Z,18.96
2022-12-11T10:41:17.871Z,19.03
2022-12-11T10:42:22.461Z,19.01
2022-12-11T10:43:44.450Z,19.00
2022-12-11T10:45:01.047Z,19.06
2022-12-11T10:46:03.996Z,19.04
2022-12-11T10:47:10.623Z,19.06
2022-12-11T10:48:13.357Z,19.02
2022-12-11T10:49:27.915Z,19.19
2022-12-11T10:50:29.723Z,19.24
2022-12-11T10:51:31.320Z,19.34
2022-12-11T10:52:39.192Z,19.44
2022-12-11T10:53:43.375Z,19.48
2022-12-11T10:54:48.967Z,19.50
2022-12-11T10:55:50.882Z,19.51
2022-12-11T10:56:54.119Z,19.41
2022-12-11T10:58:04.453Z,19.53
2022-12-11T10:59:06.901Z,19.49
2022-12-11T11:00:30.085Z,19.54
2022-12-11T11:01:32.993Z,19.57
2022-12-11T11:02:38.645Z,19.67
2022-12-11T11:04:20.299Z,19.76
2022-12-11T11:05:34.743Z,19.83
2022-12-11T11:06:36.531Z,19.83
2022-12-11T11:07:38.359Z,19.89
2022-12-11T11:08:44.215Z,19.89
2022-12-11T11:09:46.241Z,19.86
2022-12-11T11:11:06.209Z,19.75
2022-12-11T11:12:24.762Z,19.71
2022-12-11T11:13:29.084Z,19.66
2022-12-11T11:14:30.829Z,19.57
2022-12-11T11:15:33.023Z,19.53
2022-12-11T11:16:39.006Z,19.59
2022-12-11T11:17:54.241Z,19.67
2022-12-11T11:18:58.278Z,19.73
2022-12-11T11:20:12.172Z,19.87
2022-12-11T11:21:19.140Z,19.93
2022-12-11T11:22:20.841Z,19.98
2022-12-11T11:23:24.005Z,20.03
2022-12-11T11:24:36.888Z,20.11
2022-12-11T11:25:38.644Z,20.17
2022-12-11T11:27:11.635Z,20.20
2022-12-11T11:28:05.972Z,20.24
2022-12-11T11:29:26.399Z,20.21
2022-12-11T11:30:35.015Z,20.20
2022-12-11T11:31:37.063Z,20.16
2022-12-11T11:32:41.443Z,20.24
2022-12-11T11:34:06.161Z,20.29
2022-12-11T11:35:11.686Z,20.29
2022-12-11T11:36:42.976Z,20.29
2022-12-11T11:37:57.209Z,20.31
2022-12-11T11:39:23.489Z,20.30
2022-12-11T11:40:39.597Z,20.24
2022-12-11T11:41:52.077Z,20.16
2022-12-11T11:43:07.589Z,20.10
2022-12-11T11:44:15.091Z,20.08
2022-12-11T11:45:24.523Z,19.97
2022-12-11T11:46:36.706Z,19.94
2022-12-11T11:47:43.464Z,19.90
2022-12-11T11:49:11.803Z,19.81
2022-12-11T11:50:27.868Z,19.80
2022-12-11T11:51:38.987Z,19.82
2022-12-11T11:52:48.856Z,19.77
2022-12-11T11:53:52.906Z,19.77
2022-12-11T11:55:02.274Z,19.67
2022-12-11T11:56:35.173Z,19.54
2022-12-11T11:57:54.269Z,19.52
2022-12-11T11:59:08.591Z,19.53
2022-12-11T12:00:28.869Z,19.45
2022-12-11T12:01:35.000Z,19.36
2022-12-11T12:02:37.012Z,19.27
2022-12-11T12:03:38.709Z,19.23
2022-12-11T12:04:40.515Z,19.18
2022-12-11T12:06:04.539Z,19.07
2022-12-11T12:07:35.377Z,18.85
2022-12-11T12:08:40.097Z,18.83
2022-12-11T12:09:41.729Z,18.86
2022-12-11T12:11:16.044Z,18.88
2022-12-11T12:12:34.413Z,18.85
2022-12-11T12:14:43.690Z,18.85
2022-12-11T12:15:48.904Z,18.82
2022-12-11T12:17:08.868Z,18.83
2022-12-11T12:18:22.880Z,18.80
2022-12-11T12:19:46.351Z,18.83
2022-12-11T12:20:53.745Z,18.85
2022-12-11T12:21:55.973Z,18.86
2022-12-11T12:23:25.502Z,18.85
2022-12-11T12:24:49.588Z,18.82
2022-12-11T12:26:02.337Z,18.82
2022-12-11T12:27:51.583Z,18.84
2022-12-11T12:29:06.004Z,18.80
2022-12-11T12:30:22.116Z,18.75
2022-12-11T12:31:24.863Z,18.65
2022-12-11T12:32:41.059Z,18.63
2022-12-11T12:33:58.034Z,18.68
2022-12-11T12:35:05.821Z,18.69
2022-12-11T12:36:32.543Z,18.71
2022-12-11T12:38:00.461Z,18.74
2022-12-11T12:39:07.956Z,18.76
2022-12-11T12:40:24.950Z,18.73
2022-12-11T12:41:32.820Z,18.75
2022-12-11T12:42:52.947Z,18.72
2022-12-11T12:44:12.090Z,18.69
2022-12-11T12:45:25.140Z,18.68
2022-12-11T12:46:51.715Z,18.68
2022-12-11T12:47:53.710Z,18.65
2022-12-11T12:48:59.073Z,18.67
2022-12-11T12:50:01.802Z,18.61
2022-12-11T12:51:04.614Z,18.64
2022-12-11T12:52:13.462Z,18.66
2022-12-11T12:53:23.121Z,18.63
2022-12-11T12:54:27.955Z,18.39
2022-12-11T12:55:32.040Z,18.36
2022-12-11T12:56:34.157Z,18.41
2022-12-11T12:57:38.408Z,18.52
2022-12-11T12:58:43.732Z,18.57
2022-12-11T12:59:54.436Z,18.60
2022-12-11T13:01:10.907Z,18.56
2022-12-11T13:02:16.938Z,18.53
2022-12-11T13:03:32.781Z,18.47
2022-12-11T13:04:55.076Z,18.53
2022-12-11T13:06:02.046Z,18.49
2022-12-11T13:07:32.802Z,18.40
2022-12-11T13:08:46.183Z,18.41
2022-12-11T13:10:04.744Z,18.43
2022-12-11T13:11:12.512Z,18.52
2022-12-11T13:12:46.296Z,18.54
2022-12-11T13:14:02.687Z,18.66
2022-12-11T13:15:04.477Z,18.69
2022-12-11T13:16:34.682Z,18.82
2022-12-11T13:17:39.307Z,18.85
2022-12-11T13:18:43.374Z,18.88
2022-12-11T13:19:45.089Z,18.84
2022-12-11T13:20:51.230Z,18.94
2022-12-11T13:22:13.149Z,18.97
2022-12-11T13:23:47.169Z,18.99
2022-12-11T13:24:49.572Z,18.91
2022-12-11T13:25:54.832Z,18.88
2022-12-11T13:26:56.931Z,18.79
2022-12-11T13:28:08.960Z,18.84
2022-12-11T13:29:34.088Z,18.88
2022-12-11T13:30:36.380Z,18.89
2022-12-11T13:31:43.933Z,18.94
2022-12-11T13:33:03.673Z,18.92
2022-12-11T13:34:22.919Z,18.92
2022-12-11T13:35:24.755Z,18.88
2022-12-11T13:36:33.243Z,18.83
2022-12-11T13:37:43.400Z,18.85
2022-12-11T13:38:49.522Z,18.80
2022-12-11T13:39:52.132Z,18.76
2022-12-11T13:40:55.804Z,18.74
2022-12-11T13:42:01.884Z,18.79
2022-12-11T13:43:08.461Z,18.74
2022-12-11T13:44:20.242Z,18.67
2022-12-11T13:45:29.811Z,18.66
2022-12-11T13:46:35.941Z,18.59
2022-12-11T13:47:38.302Z,18.64
2022-12-11T13:48:48.011Z,18.50
2022-12-11T13:49:55.251Z,18.42
2022-12-11T13:50:58.537Z,18.40
2022-12-11T13:52:01.224Z,18.43
2022-12-11T13:53:03.567Z,18.39
2022-12-11T13:54:17.250Z,18.28
2022-12-11T13:55:32.680Z,18.11
2022-12-11T13:56:34.565Z,18.15
2022-12-11T13:57:46.085Z,18.14
2022-12-11T13:58:48.400Z,18.15
2022-12-11T13:59:55.817Z,18.16
2022-12-11T14:01:06.489Z,18.16
2022-12-11T14:02:24.015Z,18.13
2022-12-11T14:03:26.306Z,18.06
2022-12-11T14:04:29.733Z,18.06
2022-12-11T14:05:31.709Z,18.07
2022-12-11T14:06:35.246Z,18.06
2022-12-11T14:07:41.879Z,18.05
2022-12-11T14:08:46.327Z,18.00
2022-12-11T14:09:48.129Z,17.99
2022-12-11T14:10:54.262Z,17.93
2022-12-11T14:11:57.466Z,17.95
2022-12-11T14:13:23.559Z,17.86
2022-12-11T14:14:50.593Z,17.92
2022-12-11T14:15:53.728Z,17.93
2022-12-11T14:16:55.897Z,17.91
2022-12-11T14:17:59.453Z,17.83